createdAt,value
2022-11-24T05:30:58.110Z,26.50
2022-11-24T05:31:58.056Z,22.30
2022-11-24T05:32:58.024Z,27.40
2022-11-24T05:33:58.025Z,22.20
2022-11-24T05:34:58.168Z,22.60
2022-11-24T05:35:58.015Z,19.30
2022-11-24T05:36:57.984Z,16.40
2022-11-24T05:37:57.964Z,18.60
2022-11-24T05:38:57.946Z,14.20
2022-11-24T05:39:57.974Z,21.80
2022-11-24T05:40:57.923Z,18.40
2022-11-24T05:41:57.940Z,19.80
2022-11-24T05:42:57.909Z,21.60
2022-11-24T05:43:57.894Z,19.40
2022-11-24T05:45:05.023Z,20.40
2022-11-24T05:45:57.946Z,19.60
2022-11-24T05:46:57.957Z,19.30
2022-11-24T05:47:57.846Z,27.30
2022-11-24T05:48:57.826Z,17.90
2022-11-24T05:49:57.815Z,21.60
2022-11-24T05:50:57.805Z,16.90
2022-11-24T05:51:57.795Z,20.60
2022-11-24T05:52:57.786Z,14.60
2022-11-24T05:53:57.755Z,15.70
2022-11-24T05:54:57.745Z,21.10
2022-11-24T05:55:57.735Z,24.70
2022-11-24T05:56:57.715Z,26.20
2022-11-24T05:57:57.715Z,17.70
2022-11-24T05:58:57.684Z,19.70
2022-11-24T05:59:57.684Z,20.10
2022-11-24T06:00:57.674Z,17.30
2022-11-24T06:01:57.766Z,13.90
2022-11-24T06:02:57.727Z,20.50
2022-11-24T06:03:57.629Z,22.20
2022-11-24T06:04:57.613Z,21.60
2022-11-24T06:05:57.603Z,21.10
2022-11-24T06:06:57.593Z,27.80
2022-11-24T06:07:57.660Z,14.70
2022-11-24T06:08:57.562Z,23.20
2022-11-24T06:09:57.561Z,19.90
2022-11-24T06:10:57.533Z,23.00
2022-11-24T06:11:57.532Z,21.20
2022-11-24T06:12:57.524Z,24.90
2022-11-24T06:13:57.608Z,17.70
2022-11-24T06:14:57.492Z,20.10
2022-11-24T06:15:57.489Z,25.30
2022-11-24T06:16:57.461Z,25.30
2022-11-24T06:17:57.450Z,20.40
2022-11-24T06:18:57.432Z,17.00
2022-11-24T06:19:57.420Z,23.80
2022-11-24T06:21:10.364Z,20.10
2022-11-24T06:21:58.391Z,29.00
2022-11-24T06:22:57.391Z,18.90
2022-11-24T06:23:57.362Z,18.00
2022-11-24T06:24:57.360Z,21.80
2022-11-24T06:25:57.341Z,25.80
2022-11-24T06:26:57.341Z,27.20
2022-11-24T06:27:57.328Z,29.20
2022-11-24T06:28:57.315Z,21.80
2022-11-24T06:29:57.292Z,18.90
2022-11-24T06:30:57.280Z,24.50
2022-11-24T06:31:57.313Z,20.10
2022-11-24T06:32:57.269Z,29.50
2022-11-24T06:33:57.238Z,21.60
2022-11-24T06:34:57.229Z,22.60
2022-11-24T06:35:57.211Z,21.60
2022-11-24T06:36:57.219Z,21.50
2022-11-24T06:37:57.207Z,23.60
2022-11-24T06:38:57.178Z,16.90
2022-11-24T06:39:57.158Z,28.60
2022-11-24T06:40:57.151Z,22.20
2022-11-24T06:41:57.129Z,23.30
2022-11-24T06:42:57.145Z,23.20
2022-11-24T06:43:57.113Z,24.60
2022-11-24T06:44:57.099Z,21.10
2022-11-24T06:45:57.158Z,24.10
2022-11-24T06:46:57.068Z,23.40
2022-11-24T06:47:57.069Z,25.90
2022-11-24T06:48:57.048Z,25.60
2022-11-24T06:49:57.027Z,24.40
2022-11-24T06:50:57.018Z,19.40
2022-11-24T06:51:57.022Z,19.20
2022-11-24T06:52:56.998Z,14.40
2022-11-24T06:53:56.987Z,22.10
2022-11-24T06:54:56.976Z,23.90
2022-11-24T06:55:56.950Z,21.10
2022-11-24T06:56:56.946Z,21.20
2022-11-24T06:57:56.926Z,22.80
2022-11-24T06:58:56.926Z,24.60
2022-11-24T06:59:56.906Z,24.40
2022-11-24T07:00:56.965Z,19.10
2022-11-24T07:01:56.874Z,25.00
2022-11-24T07:02:56.911Z,24.10
2022-11-24T07:03:56.864Z,26.70
2022-11-24T07:04:56.836Z,23.80
2022-11-24T07:05:56.826Z,22.70
2022-11-24T07:06:56.806Z,15.80
2022-11-24T07:07:56.829Z,25.90
2022-11-24T07:08:56.796Z,24.60
2022-11-24T07:09:56.783Z,15.60
2022-11-24T07:10:56.775Z,19.10
2022-11-24T07:11:56.743Z,19.40
2022-11-24T07:12:56.735Z,20.10
2022-11-24T07:14:00.023Z,22.40
2022-11-24T07:14:56.712Z,18.40
2022-11-24T07:15:56.693Z,23.70
2022-11-24T07:16:56.790Z,23.10
2022-11-24T07:17:56.674Z,22.80
2022-11-24T07:18:56.665Z,14.80
2022-11-24T07:19:56.634Z,26.40
2022-11-24T07:20:56.623Z,23.00
2022-11-24T07:21:56.612Z,20.90
2022-11-24T07:22:56.603Z,23.20
2022-11-24T07:23:56.605Z,21.00
2022-11-24T07:24:56.572Z,24.80
2022-11-24T07:25:56.563Z,19.30
2022-11-24T07:26:56.551Z,22.30
2022-11-24T07:27:56.532Z,23.20
2022-11-24T07:28:56.532Z,23.30
2022-11-24T07:29:56.512Z,23.50
2022-11-24T07:30:56.501Z,32.00
2022-11-24T07:32:00.768Z,25.50
2022-11-24T07:32:57.471Z,21.10
2022-11-24T07:33:56.463Z,27.50
2022-11-24T07:34:56.440Z,23.90
2022-11-24T07:35:56.422Z,29.80
2022-11-24T07:36:56.422Z,25.10
2022-11-24T07:37:56.591Z,20.10
2022-11-24T07:38:56.411Z,28.10
2022-11-24T07:39:56.375Z,30.10
2022-11-24T07:40:56.361Z,30.30
2022-11-24T07:41:56.350Z,25.10
2022-11-24T07:42:56.340Z,33.30
2022-11-24T07:43:56.341Z,26.20
2022-11-24T07:44:56.321Z,22.70
2022-11-24T07:45:56.399Z,23.80
2022-11-24T07:46:56.290Z,20.70
2022-11-24T07:47:56.270Z,24.70
2022-11-24T07:48:56.270Z,21.40
2022-11-24T07:49:56.250Z,22.80
2022-11-24T07:50:56.530Z,31.90
2022-11-24T07:51:56.222Z,28.80
2022-11-24T07:52:56.208Z,32.50
2022-11-24T07:53:56.209Z,35.00
2022-11-24T07:54:56.200Z,23.80
2022-11-24T07:55:56.168Z,29.70
2022-11-24T07:56:56.158Z,29.00
2022-11-24T07:57:56.148Z,28.80
2022-11-24T07:58:56.147Z,28.70
2022-11-24T07:59:56.116Z,30.60
2022-11-24T08:00:56.108Z,24.80
2022-11-24T08:01:56.168Z,25.60
2022-11-24T08:02:56.085Z,39.60
2022-11-24T08:03:56.108Z,26.30
2022-11-24T08:04:56.058Z,25.20
2022-11-24T08:06:16.435Z,23.50
2022-11-24T08:06:57.028Z,29.90
2022-11-24T08:07:56.050Z,25.30
2022-11-24T08:08:56.008Z,27.60
2022-11-24T08:09:55.987Z,38.30
2022-11-24T08:10:55.976Z,32.60
2022-11-24T08:11:55.964Z,26.20
2022-11-24T08:12:55.948Z,29.90
2022-11-24T08:13:55.946Z,44.30
2022-11-24T08:14:55.926Z,41.20
2022-11-24T08:15:55.906Z,35.30
2022-11-24T08:16:55.938Z,32.90
2022-11-24T08:17:55.885Z,56.30
2022-11-24T08:18:55.887Z,55.20
2022-11-24T08:19:55.856Z,53.10
2022-11-24T08:20:55.846Z,57.20
2022-11-24T08:21:55.824Z,59.00
2022-11-24T08:22:55.816Z,64.10
2022-11-24T08:23:55.811Z,82.40
2022-11-24T08:24:55.795Z,45.60
2022-11-24T08:25:57.068Z,51.20
2022-11-24T08:26:55.767Z,82.60
2022-11-24T08:27:55.745Z,44.80
2022-11-24T08:28:55.754Z,37.00
2022-11-24T08:29:55.725Z,17.70
2022-11-24T08:30:55.715Z,21.70
2022-11-24T08:31:55.762Z,29.70
2022-11-24T08:32:55.694Z,22.40
2022-11-24T08:33:55.683Z,23.40
2022-11-24T08:34:59.625Z,24.60
2022-11-24T08:35:56.646Z,27.20
2022-11-24T08:36:55.634Z,22.00
2022-11-24T08:37:58.150Z,17.80
2022-11-24T08:38:56.633Z,17.60
2022-11-24T08:39:55.592Z,20.70
2022-11-24T08:40:55.583Z,15.20
2022-11-24T08:41:55.573Z,21.10
2022-11-24T08:42:55.553Z,22.10
2022-11-24T08:43:55.555Z,27.20
2022-11-24T08:44:59.076Z,20.90
2022-11-24T08:45:55.545Z,14.40
2022-11-24T08:46:55.503Z,19.80
2022-11-24T08:47:55.493Z,17.20
2022-11-24T08:48:55.497Z,16.70
2022-11-24T08:49:55.471Z,19.10
2022-11-24T08:50:55.453Z,18.00
2022-11-24T08:51:55.443Z,16.50
2022-11-24T08:52:55.421Z,18.30
2022-11-24T08:53:55.440Z,17.30
2022-11-24T08:54:55.401Z,21.50
2022-11-24T08:55:55.390Z,19.80
2022-11-24T08:56:55.372Z,18.10
2022-11-24T08:57:55.361Z,19.10
2022-11-24T08:58:55.433Z,19.40
2022-11-24T08:59:55.343Z,19.60
2022-11-24T09:00:55.405Z,16.60
2022-11-24T09:01:55.362Z,16.20
2022-11-24T09:02:55.289Z,19.80
2022-11-24T09:03:55.394Z,13.30
2022-11-24T09:04:55.317Z,16.10
2022-11-24T09:05:55.259Z,14.40
2022-11-24T09:06:55.239Z,22.00
2022-11-24T09:07:55.280Z,16.90
2022-11-24T09:08:55.209Z,13.30
2022-11-24T09:09:55.219Z,14.30
2022-11-24T09:10:55.189Z,30.60
2022-11-24T09:11:55.179Z,20.90
2022-11-24T09:12:55.168Z,16.00
2022-11-24T09:13:55.158Z,14.20
2022-11-24T09:14:55.149Z,28.90
2022-11-24T09:15:55.128Z,22.80
2022-11-24T09:16:55.162Z,23.10
2022-11-24T09:17:55.106Z,13.30
2022-11-24T09:18:55.081Z,20.40
2022-11-24T09:19:55.089Z,13.70
2022-11-24T09:20:55.057Z,12.20
2022-11-24T09:21:55.061Z,11.30
2022-11-24T09:22:55.029Z,16.40
2022-11-24T09:23:55.026Z,17.50
2022-11-24T09:24:55.017Z,16.10
2022-11-24T09:25:54.997Z,19.50
2022-11-24T09:26:54.986Z,16.40
2022-11-24T09:27:54.966Z,16.20
2022-11-24T09:28:54.956Z,11.50
2022-11-24T09:29:54.956Z,11.00
2022-11-24T09:30:54.950Z,26.50
2022-11-24T09:31:54.927Z,16.20
2022-11-24T09:32:54.896Z,22.60
2022-11-24T09:33:54.898Z,15.10
2022-11-24T09:34:54.886Z,9.00
2022-11-24T09:35:54.866Z,17.20
2022-11-24T09:36:54.847Z,15.90
2022-11-24T09:37:54.839Z,14.00
2022-11-24T09:38:54.825Z,12.50
2022-11-24T09:39:54.835Z,13.00
2022-11-24T09:40:54.861Z,10.70
2022-11-24T09:41:54.785Z,12.80
2022-11-24T09:42:54.793Z,17.50
2022-11-24T09:43:54.765Z,10.20
2022-11-24T09:44:54.761Z,9.20
2022-11-24T09:46:05.641Z,14.20
2022-11-24T09:46:55.787Z,13.00
2022-11-24T09:47:54.716Z,11.00
2022-11-24T09:48:54.694Z,12.20
2022-11-24T09:49:54.694Z,11.00
2022-11-24T09:50:54.664Z,14.70
2022-11-24T09:51:54.654Z,16.00
2022-11-24T09:52:54.642Z,11.40
2022-11-24T09:53:54.633Z,10.50
2022-11-24T09:54:54.623Z,12.00
2022-11-24T09:55:54.613Z,14.00
2022-11-24T09:56:54.603Z,13.60
2022-11-24T09:57:54.573Z,18.60
2022-11-24T09:58:54.563Z,14.40
2022-11-24T09:59:54.563Z,18.30
2022-11-24T10:00:54.543Z,18.90
2022-11-24T10:01:54.619Z,16.60
2022-11-24T10:02:54.512Z,16.30
2022-11-24T10:03:54.504Z,17.60
2022-11-24T10:04:54.566Z,15.00
2022-11-24T10:05:54.482Z,11.50
2022-11-24T10:06:54.459Z,15.50
2022-11-24T10:07:54.504Z,13.30
2022-11-24T10:08:54.482Z,8.80
2022-11-24T10:09:54.474Z,19.50
2022-11-24T10:10:54.410Z,13.50
2022-11-24T10:11:54.415Z,14.70
2022-11-24T10:12:54.382Z,16.20
2022-11-24T10:13:54.381Z,14.10
2022-11-24T10:14:54.371Z,16.20
2022-11-24T10:15:54.433Z,12.50
2022-11-24T10:16:54.333Z,15.70
2022-11-24T10:17:54.340Z,19.60
2022-11-24T10:18:54.308Z,14.30
2022-11-24T10:19:54.315Z,11.50
2022-11-24T10:20:54.279Z,15.90
2022-11-24T10:21:54.272Z,20.60
2022-11-24T10:22:54.248Z,17.90
2022-11-24T10:23:54.247Z,13.00
2022-11-24T10:24:54.249Z,18.60
2022-11-24T10:25:54.218Z,17.00
2022-11-24T10:26:54.200Z,20.70
2022-11-24T10:27:54.189Z,13.10
2022-11-24T10:28:54.182Z,19.50
2022-11-24T10:29:54.178Z,22.10
2022-11-24T10:30:54.225Z,14.60
2022-11-24T10:31:54.148Z,22.30
2022-11-24T10:32:54.128Z,19.00
2022-11-24T10:33:54.108Z,15.50
2022-11-24T10:34:54.097Z,15.60
2022-11-24T10:35:54.099Z,23.40
2022-11-24T10:36:54.078Z,14.50
2022-11-24T10:37:54.059Z,14.70
2022-11-24T10:38:54.056Z,10.50
2022-11-24T10:39:59.689Z,16.30
2022-11-24T10:40:57.732Z,19.00
2022-11-24T10:41:54.009Z,12.30
2022-11-24T10:42:53.996Z,23.00
2022-11-24T10:43:53.978Z,16.60
2022-11-24T10:44:53.967Z,23.80
2022-11-24T10:45:53.996Z,26.10
2022-11-24T10:46:53.999Z,19.90
2022-11-24T10:47:53.926Z,22.10
2022-11-24T10:48:53.940Z,30.80
2022-11-24T10:49:53.907Z,22.40
2022-11-24T10:50:53.905Z,20.50
2022-11-24T10:51:53.877Z,31.60
2022-11-24T10:52:53.865Z,9.00
2022-11-24T10:53:53.845Z,19.80
2022-11-24T10:54:53.844Z,19.30
2022-11-24T10:55:53.836Z,14.00
2022-11-24T10:56:53.815Z,23.00
2022-11-24T10:57:53.794Z,17.90
2022-11-24T10:58:53.785Z,22.10
2022-11-24T10:59:53.785Z,24.10
2022-11-24T11:00:53.776Z,20.10
2022-11-24T11:01:53.845Z,11.70
2022-11-24T11:02:53.816Z,9.50
2022-11-24T11:03:53.731Z,15.70
2022-11-24T11:04:53.715Z,17.40
2022-11-24T11:05:53.704Z,20.80
2022-11-24T11:06:53.684Z,16.60
2022-11-24T11:07:53.723Z,9.80
2022-11-24T11:08:53.664Z,14.10
2022-11-24T11:09:53.643Z,12.30
2022-11-24T11:10:53.643Z,21.50
2022-11-24T11:11:53.622Z,20.40
2022-11-24T11:12:53.614Z,18.20
2022-11-24T11:13:56.980Z,17.70
2022-11-24T11:14:54.583Z,10.00
2022-11-24T11:15:53.629Z,8.20
2022-11-24T11:16:53.562Z,14.90
2022-11-24T11:17:53.542Z,11.00
2022-11-24T11:18:53.533Z,7.70
2022-11-24T11:20:00.411Z,12.60
2022-11-24T11:20:54.522Z,7.80
2022-11-24T11:21:53.493Z,11.30
2022-11-24T11:22:53.492Z,11.30
2022-11-24T11:23:53.462Z,16.50
2022-11-24T11:24:53.452Z,25.30
2022-11-24T11:25:53.450Z,8.40
2022-11-24T11:26:53.433Z,13.10
2022-11-24T11:27:53.411Z,9.40
2022-11-24T11:28:53.543Z,10.80
2022-11-24T11:34:03.902Z,21.60
2022-11-24T11:34:54.359Z,21.20
2022-11-24T11:35:53.322Z,19.70
2022-11-24T11:36:53.301Z,9.80
2022-11-24T11:37:53.289Z,11.60
2022-11-24T11:38:53.280Z,12.90
2022-11-24T11:39:53.268Z,13.50
2022-11-24T11:40:53.269Z,12.20
2022-11-24T11:41:53.241Z,12.20
2022-11-24T11:43:08.552Z,16.00
2022-11-24T11:43:54.208Z,16.60
2022-11-24T11:44:53.199Z,8.30
2022-11-24T11:46:00.383Z,11.70
2022-11-24T11:46:53.203Z,9.20
2022-11-24T11:47:53.172Z,9.80
2022-11-24T11:48:53.156Z,13.70
2022-11-24T11:49:53.132Z,10.80
2022-11-24T11:51:21.803Z,11.40
2022-11-24T11:51:54.122Z,8.80
2022-11-24T11:52:53.089Z,13.30
2022-11-24T11:53:53.284Z,8.60
2022-11-24T11:54:53.071Z,16.50
2022-11-24T11:55:53.069Z,8.60
2022-11-24T11:56:53.041Z,10.00
2022-11-24T11:57:53.051Z,10.90
2022-11-24T11:58:53.028Z,15.30
2022-11-24T11:59:53.010Z,14.90
2022-11-24T12:00:53.012Z,13.30
2022-11-24T12:01:52.980Z,10.60
2022-11-24T12:02:53.922Z,8.40
2022-11-24T12:03:53.028Z,16.60
2022-11-24T12:04:52.935Z,13.40
2022-11-24T12:05:52.921Z,14.30
2022-11-24T12:06:52.934Z,12.60
2022-11-24T12:07:53.004Z,10.30
2022-11-24T12:09:53.879Z,12.60
2022-11-24T12:10:52.861Z,14.70
2022-11-24T12:11:52.866Z,15.40
2022-11-24T12:12:52.833Z,9.60
2022-11-24T12:13:52.831Z,7.50
2022-11-24T12:14:52.800Z,16.20
2022-11-24T12:15:52.847Z,12.40
2022-11-24T12:16:52.868Z,11.10
2022-11-24T12:17:52.770Z,14.00
2022-11-24T12:18:58.045Z,12.90
2022-11-24T12:19:53.745Z,12.00
2022-11-24T12:20:52.737Z,13.80
2022-11-24T12:21:52.728Z,15.60
2022-11-24T12:22:52.699Z,14.30
2022-11-24T12:23:52.690Z,17.70
2022-11-24T12:24:52.714Z,8.30
2022-11-24T12:25:52.683Z,9.30
2022-11-24T12:26:52.660Z,13.10
2022-11-24T12:27:52.649Z,12.40
2022-11-24T12:28:52.629Z,10.10
2022-11-24T12:29:52.617Z,13.20
2022-11-24T12:30:52.703Z,11.40
2022-11-24T12:31:52.670Z,12.00
2022-11-24T12:32:52.569Z,8.70
2022-11-24T12:33:57.883Z,9.80
2022-11-24T12:34:53.549Z,11.20
2022-11-24T12:35:52.538Z,15.20
2022-11-24T12:36:52.540Z,11.30
2022-11-24T12:37:52.507Z,12.20
2022-11-24T12:38:52.498Z,13.30
2022-11-24T12:39:52.478Z,12.20
2022-11-24T12:40:58.068Z,10.00
2022-11-24T12:41:53.467Z,11.40
2022-11-24T12:42:52.448Z,9.60
2022-11-24T12:43:52.436Z,15.20
2022-11-24T12:44:52.419Z,12.40
2022-11-24T12:45:52.408Z,14.10
2022-11-24T12:46:52.452Z,12.90
2022-11-24T12:47:52.386Z,14.70
2022-11-24T12:48:52.365Z,10.80
2022-11-24T12:49:52.357Z,16.10
2022-11-24T12:50:52.336Z,10.30
2022-11-24T12:51:52.336Z,9.60
2022-11-24T12:52:58.478Z,13.70
2022-11-24T12:53:53.296Z,12.30
2022-11-24T12:54:52.288Z,11.40
2022-11-24T12:55:52.276Z,12.10
2022-11-24T12:56:52.275Z,15.10
2022-11-24T12:57:52.254Z,13.80
2022-11-24T12:58:52.235Z,14.80
2022-11-24T12:59:52.224Z,8.10
2022-11-24T13:00:52.207Z,13.70
2022-11-24T13:01:52.334Z,8.30
2022-11-24T13:02:52.347Z,12.80
2022-11-24T13:03:52.174Z,14.50
2022-11-24T13:04:52.156Z,10.20
2022-11-24T13:05:52.147Z,13.40
2022-11-24T13:06:52.136Z,10.50
2022-11-24T13:07:52.142Z,11.70
2022-11-24T13:08:52.119Z,12.20
2022-11-24T13:09:52.112Z,14.50
2022-11-24T13:10:57.082Z,11.20
2022-11-24T13:11:53.066Z,19.90
2022-11-24T13:12:52.056Z,15.40
2022-11-24T13:13:52.044Z,13.20
2022-11-24T13:14:52.073Z,14.70
2022-11-24T13:16:07.092Z,16.40
2022-11-24T13:17:21.883Z,11.60
2022-11-24T13:18:08.676Z,10.80
2022-11-24T13:18:53.032Z,10.50
2022-11-24T13:19:51.965Z,14.80
2022-11-24T13:20:51.943Z,13.30
2022-11-24T13:21:52.032Z,9.90
2022-11-24T13:22:51.925Z,11.80
2022-11-24T13:23:51.914Z,16.50
2022-11-24T13:24:51.914Z,17.60
2022-11-24T13:25:51.884Z,12.30
2022-11-24T13:26:51.880Z,9.20
2022-11-24T13:27:51.873Z,11.40
2022-11-24T13:29:05.755Z,13.40
2022-11-24T13:29:52.833Z,11.90
2022-11-24T13:30:51.813Z,13.90
2022-11-24T13:31:51.864Z,10.50
2022-11-24T13:32:51.803Z,9.30
2022-11-24T13:33:51.782Z,10.20
2022-11-24T13:34:51.763Z,12.30
2022-11-24T13:35:51.791Z,8.40
2022-11-24T13:36:51.740Z,13.20
2022-11-24T13:37:51.774Z,11.00
2022-11-24T13:38:51.712Z,10.20
2022-11-24T13:39:51.746Z,14.10
2022-11-24T13:41:13.517Z,18.60
2022-11-24T13:41:52.685Z,15.20
2022-11-24T13:42:51.680Z,7.80
2022-11-24T13:43:51.661Z,13.80
2022-11-24T13:44:51.640Z,14.00
2022-11-24T13:45:51.632Z,14.90
2022-11-24T13:46:51.678Z,14.20
2022-11-24T13:47:51.612Z,14.00
2022-11-24T13:48:51.588Z,14.20
2022-11-24T13:49:51.574Z,10.50
2022-11-24T13:50:51.850Z,19.50
2022-11-24T13:51:51.553Z,10.50
2022-11-24T13:52:51.549Z,16.40
2022-11-24T13:53:51.521Z,9.00
2022-11-24T13:54:51.501Z,11.60
2022-11-24T13:55:51.499Z,19.80
2022-11-24T13:56:51.502Z,18.20
2022-11-24T13:57:51.490Z,11.50
2022-11-24T13:58:51.501Z,9.60
2022-11-24T13:59:51.449Z,14.30
2022-11-24T14:00:55.500Z,11.30
2022-11-24T14:01:52.475Z,25.20
2022-11-24T14:02:51.638Z,21.30
2022-11-24T14:04:28.178Z,21.70
2022-11-24T14:04:52.380Z,26.60
2022-11-24T14:05:51.383Z,12.10
2022-11-24T14:06:51.350Z,11.50
2022-11-24T14:07:51.720Z,13.80
2022-11-24T14:08:51.330Z,24.50
2022-11-24T14:09:51.326Z,38.00
2022-11-24T14:10:51.300Z,27.90
2022-11-24T14:11:51.293Z,32.10
2022-11-24T14:12:51.300Z,19.30
2022-11-24T14:13:51.268Z,18.10
2022-11-24T14:14:51.261Z,15.30
2022-11-24T14:15:51.332Z,17.60
2022-11-24T14:16:51.228Z,14.80
2022-11-24T14:17:51.214Z,12.10
2022-11-24T14:18:51.220Z,13.10
2022-11-24T14:19:51.189Z,12.60
2022-11-24T14:20:51.201Z,15.00
2022-11-24T14:21:51.170Z,19.30
2022-11-24T14:22:51.148Z,18.90
2022-11-24T14:23:51.147Z,31.70
2022-11-24T14:24:51.120Z,17.90
2022-11-24T14:25:51.116Z,23.00
2022-11-24T14:26:51.111Z,12.90
2022-11-24T14:27:51.112Z,13.30
2022-11-24T14:28:51.158Z,11.60
2022-11-24T14:29:54.115Z,15.00
2022-11-24T14:30:51.049Z,18.60
2022-11-24T14:31:51.110Z,14.80
2022-11-24T14:32:51.017Z,18.60
2022-11-24T14:33:51.021Z,25.80
2022-11-24T14:34:51.026Z,13.70
2022-11-24T14:35:50.977Z,15.80
2022-11-24T14:36:50.955Z,27.80
2022-11-24T14:37:50.956Z,20.10
2022-11-24T14:38:50.967Z,23.50
2022-11-24T14:39:50.926Z,21.30
2022-11-24T14:40:50.908Z,15.10
2022-11-24T14:41:50.895Z,22.40
2022-11-24T14:42:50.905Z,22.40
2022-11-24T14:43:50.888Z,19.80
2022-11-24T14:44:50.863Z,26.20
2022-11-24T14:45:50.846Z,23.40
2022-11-24T14:46:50.885Z,34.00
2022-11-24T14:47:50.826Z,24.10
2022-11-24T14:48:50.815Z,19.80
2022-11-24T14:49:50.860Z,22.80
2022-11-24T14:50:50.795Z,45.40
2022-11-24T14:51:50.765Z,18.10
2022-11-24T14:52:50.755Z,22.90
2022-11-24T14:53:50.755Z,21.60
2022-11-24T14:54:50.725Z,29.30
2022-11-24T14:55:50.723Z,26.50
2022-11-24T14:56:50.698Z,25.30
2022-11-24T14:57:50.692Z,27.00
2022-11-24T14:58:50.700Z,25.20
2022-11-24T14:59:50.663Z,23.80
2022-11-24T15:00:50.694Z,24.20
2022-11-24T15:01:50.724Z,20.90
2022-11-24T15:02:50.632Z,27.20
2022-11-24T15:03:50.623Z,24.20
2022-11-24T15:05:06.645Z,24.50
2022-11-24T15:05:51.585Z,20.50
2022-11-24T15:06:50.601Z,17.20
2022-11-24T15:07:50.627Z,17.40
2022-11-24T15:08:50.558Z,23.30
2022-11-24T15:09:50.537Z,18.60
2022-11-24T15:10:50.515Z,17.00
2022-11-24T15:11:50.504Z,17.10
2022-11-24T15:12:50.483Z,17.70
2022-11-24T15:13:50.492Z,19.00
2022-11-24T15:14:50.478Z,16.70
2022-11-24T15:15:50.481Z,17.50
2022-11-24T15:16:50.539Z,20.50
2022-11-24T15:17:50.422Z,17.10
2022-11-24T15:18:50.544Z,15.70
2022-11-24T15:19:50.431Z,17.00
2022-11-24T15:20:50.381Z,25.80
2022-11-24T15:21:50.372Z,19.70
2022-11-24T15:22:50.361Z,15.10
2022-11-24T15:23:50.401Z,18.90
2022-11-24T15:24:50.332Z,13.30
2022-11-24T15:25:50.320Z,17.50
2022-11-24T15:26:50.301Z,13.50
2022-11-24T15:27:50.301Z,21.50
2022-11-24T15:28:50.551Z,14.60
2022-11-24T15:29:50.281Z,16.60
2022-11-24T15:30:50.261Z,17.30
2022-11-24T15:31:52.766Z,16.30
2022-11-24T15:32:50.230Z,19.00
2022-11-24T15:33:50.246Z,20.10
2022-11-24T15:34:50.210Z,16.40
2022-11-24T15:35:50.192Z,22.20
2022-11-24T15:36:50.178Z,16.70
2022-11-24T15:37:50.169Z,20.10
2022-11-24T15:38:50.163Z,14.60
2022-11-24T15:39:50.162Z,19.60
2022-11-24T15:40:50.122Z,18.60
2022-11-24T15:41:50.119Z,19.10
2022-11-24T15:42:50.098Z,19.70
2022-11-24T15:43:50.091Z,17.20
2022-11-24T15:44:50.090Z,18.40
2022-11-24T15:45:50.086Z,21.60
2022-11-24T15:46:50.087Z,25.00
2022-11-24T15:47:50.039Z,19.70
2022-11-24T15:48:50.028Z,18.50
2022-11-24T15:49:50.030Z,20.00
2022-11-24T15:50:50.008Z,20.00
2022-11-24T15:51:49.988Z,18.10
2022-11-24T15:52:49.967Z,15.90
2022-11-24T15:53:49.958Z,22.60
2022-11-24T15:54:49.967Z,16.30
2022-11-24T15:55:49.938Z,15.10
2022-11-24T15:56:49.919Z,19.00
2022-11-24T15:57:49.927Z,27.60
2022-11-24T15:58:49.890Z,20.00
2022-11-24T15:59:49.922Z,23.50
2022-11-24T16:00:49.958Z,19.50
2022-11-24T16:01:50.129Z,25.00
2022-11-24T16:02:49.909Z,20.60
2022-11-24T16:03:49.831Z,25.30
2022-11-24T16:04:49.824Z,24.10
2022-11-24T16:05:49.807Z,26.90
2022-11-24T16:06:49.787Z,25.00
2022-11-24T16:07:49.825Z,35.80
2022-11-24T16:08:49.767Z,36.50
2022-11-24T16:09:49.777Z,24.40
2022-11-24T16:10:49.745Z,37.20
2022-11-24T16:11:49.725Z,36.90
2022-11-24T16:12:49.715Z,29.70
2022-11-24T16:13:52.919Z,26.90
2022-11-24T16:14:49.694Z,40.10
2022-11-24T16:15:49.782Z,31.30
2022-11-24T16:16:49.684Z,32.20
2022-11-24T16:17:49.654Z,33.50
2022-11-24T16:18:49.638Z,37.30
2022-11-24T16:19:59.826Z,31.30
2022-11-24T16:20:50.605Z,34.80
2022-11-24T16:21:49.595Z,37.00
2022-11-24T16:22:49.584Z,32.60
2022-11-24T16:23:49.574Z,31.70
2022-11-24T16:24:49.564Z,32.90
2022-11-24T16:25:49.544Z,36.50
2022-11-24T16:26:49.525Z,32.70
2022-11-24T16:27:49.524Z,46.30
2022-11-24T16:28:49.503Z,47.50
2022-11-24T16:29:49.506Z,45.00
2022-11-24T16:30:49.481Z,49.50
2022-11-24T16:31:49.513Z,39.20
2022-11-24T16:32:49.453Z,49.60
2022-11-24T16:33:49.462Z,46.50
2022-11-24T16:34:49.443Z,32.80
2022-11-24T16:35:49.422Z,39.40
2022-11-24T16:36:49.406Z,41.10
2022-11-24T16:37:49.394Z,40.10
2022-11-24T16:38:49.371Z,36.40
2022-11-24T16:39:50.320Z,39.80
2022-11-24T16:40:49.351Z,34.40
2022-11-24T16:41:49.342Z,39.20
2022-11-24T16:42:49.329Z,37.90
2022-11-24T16:43:49.312Z,45.10
2022-11-24T16:44:49.312Z,39.00
2022-11-24T16:45:49.314Z,32.60
2022-11-24T16:46:49.271Z,42.30
2022-11-24T16:47:49.261Z,39.80
2022-11-24T16:48:49.253Z,33.10
2022-11-24T16:49:49.249Z,38.80
2022-11-24T16:50:49.230Z,39.10
2022-11-24T16:51:49.229Z,44.50
2022-11-24T16:52:49.199Z,39.60
2022-11-24T16:53:49.189Z,37.90
2022-11-24T16:54:49.202Z,36.80
2022-11-24T16:55:49.161Z,33.70
2022-11-24T16:56:49.140Z,39.00
2022-11-24T16:57:49.140Z,35.30
2022-11-24T16:58:49.119Z,32.50
2022-11-24T16:59:49.119Z,31.00
2022-11-24T17:00:49.154Z,37.60
2022-11-24T17:01:49.161Z,39.00
2022-11-24T17:02:49.106Z,28.80
2022-11-24T17:03:49.057Z,30.30
2022-11-24T17:04:49.058Z,29.00
2022-11-24T17:05:49.028Z,29.90
2022-11-24T17:06:49.018Z,25.30
2022-11-24T17:07:49.060Z,32.20
2022-11-24T17:08:48.987Z,29.70
2022-11-24T17:09:48.990Z,26.20
2022-11-24T17:10:48.967Z,23.90
2022-11-24T17:11:48.957Z,25.10
2022-11-24T17:12:48.936Z,27.40
2022-11-24T17:13:48.935Z,26.10
2022-11-24T17:15:09.498Z,31.90
2022-11-24T17:15:54.163Z,28.50
2022-11-24T17:16:48.934Z,23.60
2022-11-24T17:18:16.278Z,21.90
2022-11-24T17:18:49.857Z,29.00
2022-11-24T17:19:48.868Z,30.70
2022-11-24T17:20:48.835Z,23.40
2022-11-24T17:21:48.824Z,25.30
2022-11-24T17:22:48.812Z,30.30
2022-11-24T17:23:48.797Z,26.70
2022-11-24T17:24:48.785Z,24.90
2022-11-24T17:25:48.793Z,29.10
2022-11-24T17:26:49.247Z,26.10
2022-11-24T17:27:48.759Z,24.90
2022-11-24T17:28:48.732Z,25.30
2022-11-24T17:29:48.722Z,24.00
2022-11-24T17:30:48.722Z,20.70
2022-11-24T17:31:48.727Z,23.70
2022-11-24T17:32:52.376Z,23.30
2022-11-24T17:33:49.672Z,29.50
2022-11-24T17:34:48.651Z,23.80
2022-11-24T17:35:48.654Z,28.90
2022-11-24T17:36:48.623Z,22.50
2022-11-24T17:37:48.622Z,27.70
2022-11-24T17:38:48.614Z,21.30
2022-11-24T17:40:05.910Z,22.60
2022-11-24T17:40:49.591Z,21.90
2022-11-24T17:41:48.581Z,23.20
2022-11-24T17:42:48.552Z,22.70
2022-11-24T17:43:48.542Z,21.00
2022-11-24T17:44:48.521Z,27.80
2022-11-24T17:45:48.548Z,19.10
2022-11-24T17:46:48.502Z,25.00
2022-11-24T17:47:48.491Z,23.70
2022-11-24T17:48:48.480Z,21.90
2022-11-24T17:49:48.462Z,24.50
2022-11-24T17:50:48.460Z,27.20
2022-11-24T17:51:48.442Z,26.40
2022-11-24T17:52:48.431Z,25.00
2022-11-24T17:53:48.408Z,30.00
2022-11-24T17:54:48.419Z,22.60
2022-11-24T17:55:48.445Z,23.60
2022-11-24T17:56:48.392Z,22.50
2022-11-24T17:57:48.364Z,27.90
2022-11-24T17:58:48.349Z,24.50
2022-11-24T17:59:48.330Z,22.10
2022-11-24T18:00:48.336Z,25.60
2022-11-24T18:01:48.307Z,23.50
2022-11-24T18:02:48.372Z,26.00
2022-11-24T18:03:53.160Z,27.00
2022-11-24T18:04:49.268Z,36.80
2022-11-24T18:05:48.267Z,34.50
2022-11-24T18:06:48.263Z,40.80
2022-11-24T18:07:48.271Z,69.30
2022-11-24T18:08:48.229Z,81.50
2022-11-24T18:09:48.207Z,94.10
2022-11-24T18:10:48.206Z,83.10
2022-11-24T18:11:48.245Z,77.50
2022-11-24T18:12:48.166Z,71.90
2022-11-24T18:13:58.561Z,78.00
2022-11-24T18:14:49.144Z,72.00
2022-11-24T18:15:48.129Z,71.90
2022-11-24T18:16:48.182Z,72.20
2022-11-24T18:17:48.096Z,68.10
2022-11-24T18:18:50.241Z,73.30
2022-11-24T18:19:48.074Z,61.80
2022-11-24T18:20:48.075Z,61.80
2022-11-24T18:21:48.084Z,74.40
2022-11-24T18:23:04.969Z,84.80
2022-11-24T18:23:49.026Z,77.80
2022-11-24T18:24:48.015Z,73.70
2022-11-24T18:25:47.995Z,84.50
2022-11-24T18:26:48.004Z,63.50
2022-11-24T18:27:47.988Z,63.00
2022-11-24T18:28:47.973Z,58.20